createdAt,value
2022-12-13T00:01:55.516Z,-2.99
2022-12-13T00:04:24.841Z,-2.96
2022-12-13T00:06:54.293Z,-2.95
2022-12-13T00:09:23.503Z,-2.94
2022-12-13T00:11:52.536Z,-2.92
2022-12-13T00:14:21.101Z,-2.90
2022-12-13T00:16:50.261Z,-2.89
2022-12-13T00:19:18.839Z,-2.90
2022-12-13T00:21:46.987Z,-2.93
2022-12-13T00:24:15.184Z,-2.94
2022-12-13T00:26:43.444Z,-2.94
2022-12-13T00:29:12.417Z,-2.90
2022-12-13T00:34:29.637Z,-2.87
2022-12-13T00:37:01.297Z,-2.82
2022-12-13T00:39:29.584Z,-2.73
2022-12-13T00:41:58.298Z,-2.63
2022-12-13T00:44:26.902Z,-2.57
2022-12-13T00:46:55.044Z,-2.50
2022-12-13T00:49:23.339Z,-2.46
2022-12-13T00:51:51.476Z,-2.48
2022-12-13T00:54:19.530Z,-2.48
2022-12-13T00:56:48.030Z,-2.45
2022-12-13T00:59:16.007Z,-2.44
2022-12-13T01:01:45.113Z,-2.50
2022-12-13T01:04:13.451Z,-2.53
2022-12-13T01:06:44.940Z,-2.56
2022-12-13T01:09:21.723Z,-2.66
2022-12-13T01:11:50.744Z,-2.77
2022-12-13T01:14:19.076Z,-2.85
2022-12-13T01:16:47.370Z,-2.94
2022-12-13T01:19:17.207Z,-3.01
2022-12-13T01:21:45.474Z,-3.03
2022-12-13T01:24:14.021Z,-3.06
2022-12-13T01:26:42.227Z,-3.10
2022-12-13T01:29:11.715Z,-3.13
2022-12-13T01:31:41.919Z,-3.17
2022-12-13T01:34:15.210Z,-3.21
2022-12-13T01:36:45.468Z,-3.24
2022-12-13T01:39:15.861Z,-3.28
2022-12-13T01:41:46.748Z,-3.33
2022-12-13T01:44:52.212Z,-3.35
2022-12-13T01:47:35.159Z,-3.35
2022-12-13T01:50:09.828Z,-3.34
2022-12-13T01:52:38.785Z,-3.30
2022-12-13T01:55:08.637Z,-3.27
2022-12-13T01:57:45.487Z,-3.24
2022-12-13T02:00:16.037Z,-3.20
2022-12-13T02:02:45.026Z,-3.18
2022-12-13T02:05:25.650Z,-3.21
2022-12-13T02:07:54.053Z,-3.26
2022-12-13T02:10:22.163Z,-3.30
2022-12-13T02:12:50.704Z,-3.33
2022-12-13T02:15:20.602Z,-3.36
2022-12-13T02:17:56.724Z,-3.40
2022-12-13T02:20:56.141Z,-3.47
2022-12-13T02:23:47.662Z,-3.55
2022-12-13T02:26:28.131Z,-3.64
2022-12-13T02:29:30.095Z,-3.71
2022-12-13T02:32:21.160Z,-3.79
2022-12-13T02:34:58.360Z,-3.87
2022-12-13T02:37:46.041Z,-3.95
2022-12-13T02:40:23.672Z,-4.00
2022-12-13T02:42:51.573Z,-4.06
2022-12-13T02:45:51.271Z,-4.10
2022-12-13T02:48:26.373Z,-4.14
2022-12-13T02:50:55.427Z,-4.18
2022-12-13T02:53:24.635Z,-4.20
2022-12-13T02:55:53.129Z,-4.21
2022-12-13T02:58:40.904Z,-4.22
2022-12-13T03:01:28.415Z,-4.22
2022-12-13T03:04:03.695Z,-4.24
2022-12-13T03:07:07.324Z,-4.25
2022-12-13T03:09:38.728Z,-4.28
2022-12-13T03:12:55.309Z,-4.31
2022-12-13T03:15:34.622Z,-4.36
2022-12-13T03:18:20.263Z,-4.39
2022-12-13T03:20:51.192Z,-4.41
2022-12-13T03:23:21.166Z,-4.42
2022-12-13T03:25:52.555Z,-4.42
2022-12-13T03:28:21.147Z,-4.42
2022-12-13T03:30:49.455Z,-4.41
2022-12-13T03:33:17.964Z,-4.41
2022-12-13T03:35:46.622Z,-4.42
2022-12-13T03:38:21.324Z,-4.43
2022-12-13T03:40:57.590Z,-4.43
2022-12-13T03:43:26.598Z,-4.41
2022-12-13T03:45:55.357Z,-4.37
2022-12-13T03:48:24.437Z,-4.33
2022-12-13T03:50:53.960Z,-4.31
2022-12-13T03:53:33.100Z,-4.28
2022-12-13T03:56:05.367Z,-4.22
2022-12-13T03:58:37.598Z,-4.15
2022-12-13T04:01:08.320Z,-4.10
2022-12-13T04:03:38.253Z,-4.07
2022-12-13T04:06:07.361Z,-4.08
2022-12-13T04:08:36.080Z,-4.11
2022-12-13T04:11:24.935Z,-4.13
2022-12-13T04:13:54.907Z,-4.17
2022-12-13T04:16:23.670Z,-4.22
2022-12-13T04:18:51.881Z,-4.31
2022-12-13T04:21:19.898Z,-4.35
2022-12-13T04:23:48.183Z,-4.39
2022-12-13T04:26:16.319Z,-4.43
2022-12-13T04:28:47.053Z,-4.47
2022-12-13T04:31:19.072Z,-4.51
2022-12-13T04:33:47.482Z,-4.54
2022-12-13T04:36:30.993Z,-4.55
2022-12-13T04:39:22.487Z,-4.55
2022-12-13T04:41:52.711Z,-4.56
2022-12-13T04:44:29.126Z,-4.57
2022-12-13T04:47:01.220Z,-4.55
2022-12-13T04:49:30.770Z,-4.54
2022-12-13T04:52:01.318Z,-4.52
2022-12-13T04:54:35.776Z,-4.48
2022-12-13T04:57:11.384Z,-4.46
2022-12-13T04:59:40.286Z,-4.42
2022-12-13T05:02:09.180Z,-4.38
2022-12-13T05:04:37.309Z,-4.34
2022-12-13T05:07:05.488Z,-4.32
2022-12-13T05:09:33.533Z,-4.30
2022-12-13T05:12:02.248Z,-4.28
2022-12-13T05:14:31.758Z,-4.26
2022-12-13T05:17:03.038Z,-4.22
2022-12-13T05:19:31.847Z,-4.16
2022-12-13T05:22:01.843Z,-4.12
2022-12-13T05:24:33.336Z,-4.08
2022-12-13T05:27:01.965Z,-4.04
2022-12-13T05:29:50.181Z,-4.03
2022-12-13T05:32:18.288Z,-4.01
2022-12-13T05:34:46.803Z,-3.97
2022-12-13T05:37:15.103Z,-3.95
2022-12-13T05:39:43.423Z,-3.95
2022-12-13T05:42:11.677Z,-3.97
2022-12-13T05:44:39.831Z,-4.00
2022-12-13T05:47:07.922Z,-4.05
2022-12-13T05:49:36.089Z,-4.08
2022-12-13T05:52:19.446Z,-4.14
2022-12-13T05:54:47.939Z,-4.19
2022-12-13T05:57:16.774Z,-4.27
2022-12-13T05:59:45.365Z,-4.38
2022-12-13T06:02:19.735Z,-4.46
2022-12-13T06:04:49.571Z,-4.54
2022-12-13T06:07:17.731Z,-4.66
2022-12-13T06:09:46.092Z,-4.71
2022-12-13T06:12:31.521Z,-4.79
2022-12-13T06:15:01.809Z,-4.88
2022-12-13T06:17:35.490Z,-4.94
2022-12-13T06:20:23.354Z,-4.97
2022-12-13T06:22:53.980Z,-5.02
2022-12-13T06:25:30.510Z,-5.04
2022-12-13T06:28:00.749Z,-5.05
2022-12-13T06:30:30.922Z,-5.07
2022-12-13T06:32:59.576Z,-5.07
2022-12-13T06:35:30.147Z,-5.09
2022-12-13T06:38:01.649Z,-5.04
2022-12-13T06:40:30.738Z,-5.00
2022-12-13T06:42:59.316Z,-4.94
2022-12-13T06:45:28.197Z,-4.88
2022-12-13T06:47:57.050Z,-4.82
2022-12-13T06:50:25.723Z,-4.73
2022-12-13T06:52:53.810Z,-4.63
2022-12-13T06:55:23.601Z,-4.50
2022-12-13T06:57:52.788Z,-4.41
2022-12-13T07:00:21.727Z,-4.31
2022-12-13T07:02:55.747Z,-4.24
2022-12-13T07:05:25.265Z,-4.19
2022-12-13T07:07:54.684Z,-4.19
2022-12-13T07:10:23.144Z,-4.15
2022-12-13T07:12:51.474Z,-4.12
2022-12-13T07:15:19.597Z,-4.12
2022-12-13T07:17:51.946Z,-4.14
2022-12-13T07:20:20.344Z,-4.15
2022-12-13T07:22:58.254Z,-4.15
2022-12-13T07:25:29.462Z,-4.16
2022-12-13T07:28:06.006Z,-4.13
2022-12-13T07:30:41.386Z,-4.12
2022-12-13T07:33:10.694Z,-4.10
2022-12-13T07:35:39.413Z,-4.08
2022-12-13T07:38:09.087Z,-4.05
2022-12-13T07:40:40.508Z,-4.00
2022-12-13T07:43:09.861Z,-3.97
2022-12-13T07:45:39.185Z,-3.92
2022-12-13T07:48:08.761Z,-3.89
2022-12-13T07:50:37.991Z,-3.82
2022-12-13T07:53:08.644Z,-3.78
2022-12-13T07:55:38.479Z,-3.73
2022-12-13T07:58:12.574Z,-3.70
2022-12-13T08:00:46.497Z,-3.66
2022-12-13T08:03:24.708Z,-3.58
2022-12-13T08:06:03.050Z,-3.47
2022-12-13T08:08:32.269Z,-3.37
2022-12-13T08:11:05.260Z,-3.27
2022-12-13T08:13:34.373Z,-3.15
2022-12-13T08:16:25.793Z,-3.01
2022-12-13T08:19:01.825Z,-2.89
2022-12-13T08:21:53.883Z,-2.84
2022-12-13T08:24:24.892Z,-2.79
2022-12-13T08:27:03.292Z,-2.74
2022-12-13T08:29:35.791Z,-2.66
2022-12-13T08:32:07.084Z,-2.68
2022-12-13T08:34:35.780Z,-2.75
2022-12-13T08:37:05.122Z,-2.72
2022-12-13T08:39:36.402Z,-2.70
2022-12-13T08:42:20.152Z,-2.65
2022-12-13T08:44:51.027Z,-2.64
2022-12-13T08:47:26.774Z,-2.62
2022-12-13T08:50:02.043Z,-2.57
2022-12-13T08:52:40.082Z,-2.53
2022-12-13T08:55:12.635Z,-2.48
2022-12-13T08:57:42.449Z,-2.44
2022-12-13T09:00:14.948Z,-2.35
2022-12-13T09:02:43.802Z,-2.29
2022-12-13T09:05:13.335Z,-2.24
2022-12-13T09:08:23.568Z,-2.21
2022-12-13T09:11:11.170Z,-2.13
2022-12-13T09:13:51.426Z,-2.08
2022-12-13T09:16:24.856Z,-2.11
2022-12-13T09:18:55.303Z,-2.10
2022-12-13T09:21:31.477Z,-2.03
2022-12-13T09:24:01.976Z,-1.99
2022-12-13T09:26:38.091Z,-1.93
2022-12-13T09:29:10.667Z,-1.84
2022-12-13T09:31:41.214Z,-1.80
2022-12-13T09:34:11.790Z,-1.68
2022-12-13T09:36:40.950Z,-1.60
2022-12-13T09:39:12.364Z,-1.51
2022-12-13T09:41:51.231Z,-1.39
2022-12-13T09:44:32.153Z,-1.36
2022-12-13T09:47:13.684Z,-1.31
2022-12-13T09:49:53.033Z,-1.33
2022-12-13T09:52:25.105Z,-1.35
2022-12-13T09:54:57.113Z,-1.34
2022-12-13T09:57:31.577Z,-1.37
2022-12-13T10:00:08.690Z,-1.38
2022-12-13T10:02:44.550Z,-1.45
2022-12-13T10:05:22.166Z,-1.38
2022-12-13T10:07:55.956Z,-1.31
2022-12-13T10:10:26.298Z,-1.20
2022-12-13T10:13:09.028Z,-1.10
2022-12-13T10:15:41.875Z,-1.02
2022-12-13T10:18:15.724Z,-0.97
2022-12-13T10:20:44.623Z,-0.99
2022-12-13T10:23:35.642Z,-1.05
2022-12-13T10:26:03.861Z,-1.14
2022-12-13T10:28:34.060Z,-1.17
2022-12-13T10:31:03.652Z,-1.18
2022-12-13T10:33:49.036Z,-1.17
2022-12-13T10:36:33.211Z,-1.12
2022-12-13T10:39:03.275Z,-1.10
2022-12-13T10:41:39.197Z,-1.07
2022-12-13T10:44:13.466Z,-1.09
2022-12-13T10:46:51.563Z,-1.15
2022-12-13T10:49:24.318Z,-1.17
2022-12-13T10:51:54.444Z,-1.11
2022-12-13T10:54:38.918Z,-1.05
2022-12-13T10:57:18.919Z,-0.93
2022-12-13T10:59:49.547Z,-0.81
2022-12-13T11:02:32.074Z,-0.74
2022-12-13T11:05:23.061Z,-0.69
2022-12-13T11:07:52.504Z,-0.67
2022-12-13T11:10:27.999Z,-0.63
2022-12-13T11:13:03.888Z,-0.63
2022-12-13T11:15:35.231Z,-0.59
2022-12-13T11:18:19.272Z,-0.48
2022-12-13T11:21:03.405Z,-0.41
2022-12-13T11:23:40.310Z,-0.32
2022-12-13T11:26:15.994Z,-0.26
2022-12-13T11:29:05.266Z,-0.18
2022-12-13T11:31:59.035Z,-0.12
2022-12-13T11:34:35.715Z,-0.08
2022-12-13T11:37:28.952Z,-0.02
2022-12-13T11:40:17.615Z,0.00
2022-12-13T11:42:56.363Z,0.04
2022-12-13T11:45:39.333Z,-0.03
2022-12-13T11:48:22.613Z,-0.07
2022-12-13T11:50:55.383Z,-0.04
2022-12-13T11:53:34.653Z,-0.00
2022-12-13T11:56:13.223Z,-0.02
2022-12-13T11:59:04.264Z,-0.04
2022-12-13T12:01:43.519Z,-0.05
2022-12-13T12:04:30.144Z,-0.07
2022-12-13T12:07:32.507Z,-0.09
2022-12-13T12:10:18.781Z,-0.14
2022-12-13T12:12:53.877Z,-0.22
2022-12-13T12:16:08.573Z,-0.33
2022-12-13T12:18:37.153Z,-0.44
2022-12-13T12:22:04.827Z,-0.49
2022-12-13T12:24:39.496Z,-0.49
2022-12-13T12:27:32.149Z,-0.47
2022-12-13T12:30:07.605Z,-0.47
2022-12-13T12:32:50.467Z,-0.47
2022-12-13T12:35:29.863Z,-0.48
2022-12-13T12:38:16.759Z,-0.47
2022-12-13T12:41:15.622Z,-0.47
2022-12-13T12:43:43.863Z,-0.50
2022-12-13T12:47:08.718Z,-0.56
2022-12-13T12:49:54.189Z,-0.63
2022-12-13T12:53:03.194Z,-0.66
2022-12-13T12:55:53.893Z,-0.70
2022-12-13T12:58:31.347Z,-0.70
2022-12-13T13:01:43.644Z,-0.68
2022-12-13T13:04:22.319Z,-0.68
2022-12-13T13:07:01.349Z,-0.69
2022-12-13T13:09:31.915Z,-0.67
2022-12-13T13:12:29.087Z,-0.61
2022-12-13T13:14:54.046Z,-0.54
2022-12-13T13:17:22.492Z,-0.50
2022-12-13T13:20:07.892Z,-0.45
2022-12-13T13:22:43.516Z,-0.39
2022-12-13T13:25:26.328Z,-0.36
2022-12-13T13:28:16.741Z,-0.36
2022-12-13T13:31:09.267Z,-0.33
2022-12-13T13:33:58.146Z,-0.36
2022-12-13T13:36:53.200Z,-0.41
2022-12-13T13:39:57.683Z,-0.44
2022-12-13T13:42:30.209Z,-0.43
2022-12-13T13:45:26.513Z,-0.44
2022-12-13T13:48:14.976Z,-0.43
2022-12-13T13:51:11.768Z,-0.39
2022-12-13T13:54:18.564Z,-0.38
2022-12-13T13:57:20.239Z,-0.37
2022-12-13T14:00:15.269Z,-0.41
2022-12-13T14:02:58.995Z,-0.44
2022-12-13T14:05:52.988Z,-0.49
2022-12-13T14:09:08.845Z,-0.51
2022-12-13T14:11:47.284Z,-0.54
2022-12-13T14:14:41.066Z,-0.61
2022-12-13T14:17:47.295Z,-0.65
2022-12-13T14:20:37.980Z,-0.69
2022-12-13T14:23:34.301Z,-0.71
2022-12-13T14:26:20.072Z,-0.73
2022-12-13T14:28:50.777Z,-0.77
2022-12-13T14:31:30.815Z,-0.80
2022-12-13T14:34:00.758Z,-0.83
2022-12-13T14:36:35.848Z,-0.84
2022-12-13T14:39:24.795Z,-0.87
2022-12-13T14:41:57.357Z,-0.91
2022-12-13T14:44:36.765Z,-0.97
2022-12-13T14:47:07.676Z,-1.03
2022-12-13T14:49:48.862Z,-1.10
2022-12-13T14:52:33.885Z,-1.18
2022-12-13T14:55:06.046Z,-1.28
2022-12-13T14:57:35.596Z,-1.38
2022-12-13T15:00:27.070Z,-1.48
2022-12-13T15:02:58.554Z,-1.59
2022-12-13T15:05:32.913Z,-1.66
2022-12-13T15:08:10.900Z,-1.75
2022-12-13T15:10:48.429Z,-1.84
2022-12-13T15:13:48.520Z,-1.93
2022-12-13T15:16:28.337Z,-2.03
2022-12-13T15:19:29.432Z,-2.10
2022-12-13T15:22:08.889Z,-2.15
2022-12-13T15:24:48.851Z,-2.19
2022-12-13T15:27:30.722Z,-2.25
2022-12-13T15:29:59.289Z,-2.31
2022-12-13T15:32:28.936Z,-2.38
2022-12-13T15:34:58.503Z,-2.43
2022-12-13T15:37:32.057Z,-2.48
2022-12-13T15:40:07.631Z,-2.54
2022-12-13T15:42:39.682Z,-2.59
2022-12-13T15:45:20.592Z,-2.62
2022-12-13T15:47:50.237Z,-2.65
2022-12-13T15:50:45.425Z,-2.65
2022-12-13T15:53:29.353Z,-2.61
2022-12-13T15:55:59.654Z,-2.57
2022-12-13T15:58:35.441Z,-2.52
2022-12-13T16:01:07.722Z,-2.45
2022-12-13T16:03:43.580Z,-2.40
2022-12-13T16:06:19.079Z,-2.39
2022-12-13T16:08:51.554Z,-2.36
2022-12-13T16:11:48.058Z,-2.35
2022-12-13T16:14:32.213Z,-2.38
2022-12-13T16:17:20.055Z,-2.38
2022-12-13T16:19:49.172Z,-2.41
2022-12-13T16:22:21.790Z,-2.44
2022-12-13T16:24:52.580Z,-2.48
2022-12-13T16:27:21.846Z,-2.50
2022-12-13T16:29:50.488Z,-2.52
2022-12-13T16:32:19.906Z,-2.55
2022-12-13T16:34:48.514Z,-2.56
2022-12-13T16:37:25.424Z,-2.60
2022-12-13T16:39:55.963Z,-2.61
2022-12-13T16:42:27.276Z,-2.59
2022-12-13T16:45:32.280Z,-2.60
2022-12-13T16:47:49.736Z,-2.62
2022-12-13T16:50:21.134Z,-2.61
2022-12-13T16:52:49.970Z,-2.61
2022-12-13T16:55:19.282Z,-2.62
2022-12-13T16:58:02.706Z,-2.64
2022-12-13T17:00:31.928Z,-2.66
2022-12-13T17:03:00.823Z,-2.68
2022-12-13T17:05:31.446Z,-2.69
2022-12-13T17:08:01.824Z,-2.70
2022-12-13T17:10:31.383Z,-2.73
2022-12-13T17:13:00.444Z,-2.77
2022-12-13T17:15:30.361Z,-2.83
2022-12-13T17:17:58.879Z,-2.90
2022-12-13T17:20:27.613Z,-2.98
2022-12-13T17:22:56.192Z,-3.03
2022-12-13T17:25:24.722Z,-3.08
2022-12-13T17:27:53.473Z,-3.13
2022-12-13T17:30:21.767Z,-3.18
2022-12-13T17:32:50.423Z,-3.23
2022-12-13T17:35:19.606Z,-3.31
2022-12-13T17:37:48.167Z,-3.35
2022-12-13T17:40:17.964Z,-3.36
2022-12-13T17:42:49.654Z,-3.39
2022-12-13T17:45:19.714Z,-3.38
2022-12-13T17:47:47.995Z,-3.36
2022-12-13T17:50:16.473Z,-3.35
2022-12-13T17:52:44.735Z,-3.34
2022-12-13T17:55:18.167Z,-3.34
2022-12-13T17:57:47.154Z,-3.33
2022-12-13T18:00:16.364Z,-3.31
2022-12-13T18:02:55.456Z,-3.30
2022-12-13T18:05:26.472Z,-3.30
2022-12-13T18:07:54.876Z,-3.31
2022-12-13T18:10:29.507Z,-3.34
2022-12-13T18:12:59.049Z,-3.38
2022-12-13T18:15:27.706Z,-3.42
2022-12-13T18:18:11.410Z,-3.47
2022-12-13T18:20:40.153Z,-3.53
2022-12-13T18:23:08.583Z,-3.58
2022-12-13T18:25:37.436Z,-3.62
2022-12-13T18:28:09.452Z,-3.64
2022-12-13T18:30:38.854Z,-3.67
2022-12-13T18:33:07.804Z,-3.71
2022-12-13T18:35:36.640Z,-3.75
2022-12-13T18:38:05.283Z,-3.77
2022-12-13T18:40:33.589Z,-3.80
2022-12-13T18:43:02.254Z,-3.81
2022-12-13T18:45:30.736Z,-3.84
2022-12-13T18:47:59.807Z,-3.86
2022-12-13T18:50:28.156Z,-3.87
2022-12-13T18:52:57.409Z,-3.83
2022-12-13T18:55:25.985Z,-3.81
2022-12-13T18:57:54.476Z,-3.77
2022-12-13T19:00:24.352Z,-3.76
2022-12-13T19:02:52.731Z,-3.74
2022-12-13T19:05:23.111Z,-3.71
2022-12-13T19:07:51.371Z,-3.71
2022-12-13T19:10:19.844Z,-3.68
2022-12-13T19:12:48.248Z,-3.64
2022-12-13T19:15:17.195Z,-3.63
2022-12-13T19:17:46.812Z,-3.64
2022-12-13T19:20:15.951Z,-3.66
2022-12-13T19:22:44.513Z,-3.71
2022-12-13T19:25:13.733Z,-3.77
2022-12-13T19:27:44.920Z,-3.83
2022-12-13T19:30:13.359Z,-3.89
2022-12-13T19:32:42.525Z,-3.97
2022-12-13T19:35:16.817Z,-4.00
2022-12-13T19:37:45.194Z,-4.04
2022-12-13T19:40:13.836Z,-4.09
2022-12-13T19:42:42.423Z,-4.15
2022-12-13T19:45:11.319Z,-4.20
2022-12-13T19:47:40.308Z,-4.27
2022-12-13T19:50:08.980Z,-4.34
2022-12-13T19:52:39.029Z,-4.41
2022-12-13T19:55:07.561Z,-4.44
2022-12-13T19:57:36.004Z,-4.47
2022-12-13T20:00:05.596Z,-4.49
2022-12-13T20:02:34.082Z,-4.51
2022-12-13T20:05:02.452Z,-4.51
2022-12-13T20:07:30.647Z,-4.51
2022-12-13T20:09:59.537Z,-4.52
2022-12-13T20:12:30.021Z,-4.52
2022-12-13T20:15:02.826Z,-4.50
2022-12-13T20:17:31.762Z,-4.50
2022-12-13T20:20:00.381Z,-4.49
2022-12-13T20:22:28.821Z,-4.50
2022-12-13T20:24:57.303Z,-4.53
2022-12-13T20:27:27.147Z,-4.58
2022-12-13T20:29:55.916Z,-4.63
2022-12-13T20:32:24.536Z,-4.68
2022-12-13T20:34:55.023Z,-4.73
2022-12-13T20:37:27.683Z,-4.80
2022-12-13T20:39:56.092Z,-4.83
2022-12-13T20:42:24.737Z,-4.85
2022-12-13T20:44:53.200Z,-4.90
2022-12-13T20:47:21.875Z,-4.94
2022-12-13T20:49:50.597Z,-4.99
2022-12-13T20:52:19.304Z,-5.02
2022-12-13T20:54:47.778Z,-5.04
2022-12-13T20:57:16.029Z,-5.03
2022-12-13T20:59:45.272Z,-5.01
2022-12-13T21:02:14.329Z,-5.00
2022-12-13T21:04:43.215Z,-4.99
2022-12-13T21:07:12.355Z,-4.94
2022-12-13T21:09:41.706Z,-4.89
2022-12-13T21:12:11.003Z,-4.86
2022-12-13T21:14:39.711Z,-4.86
2022-12-13T21:17:10.026Z,-4.83
2022-12-13T21:19:40.429Z,-4.82
2022-12-13T21:22:08.938Z,-4.81
2022-12-13T21:24:37.238Z,-4.79
2022-12-13T21:27:06.850Z,-4.77
2022-12-13T21:29:35.650Z,-4.73
2022-12-13T21:32:04.928Z,-4.73
2022-12-13T21:34:33.284Z,-4.74
2022-12-13T21:37:01.678Z,-4.77
2022-12-13T21:39:29.968Z,-4.85
2022-12-13T21:41:58.769Z,-4.93
2022-12-13T21:44:28.917Z,-5.00
2022-12-13T21:47:15.100Z,-5.07
2022-12-13T21:49:48.634Z,-5.12
2022-12-13T21:52:17.879Z,-5.18
2022-12-13T21:54:46.268Z,-5.22
2022-12-13T21:57:32.756Z,-5.23
2022-12-13T22:00:01.165Z,-5.22
2022-12-13T22:02:29.954Z,-5.23
2022-12-13T22:04:59.092Z,-5.25
2022-12-13T22:07:33.248Z,-5.25
2022-12-13T22:10:02.374Z,-5.26
2022-12-13T22:12:34.989Z,-5.27
2022-12-13T22:15:05.785Z,-5.28
2022-12-13T22:17:35.986Z,-5.28
2022-12-13T22:20:06.657Z,-5.28
2022-12-13T22:22:35.080Z,-5.29
2022-12-13T22:25:03.920Z,-5.31
2022-12-13T22:27:32.164Z,-5.36
2022-12-13T22:30:00.431Z,-5.41
2022-12-13T22:32:31.318Z,-5.43
2022-12-13T22:34:59.515Z,-5.48
2022-12-13T22:37:27.687Z,-5.51
2022-12-13T22:39:55.657Z,-5.55
2022-12-13T22:42:24.227Z,-5.54
2022-12-13T22:44:52.389Z,-5.54
2022-12-13T22:47:20.563Z,-5.57
2022-12-13T22:49:49.256Z,-5.63
2022-12-13T22:52:17.780Z,-5.68
2022-12-13T22:54:45.863Z,-5.73
2022-12-13T22:57:14.273Z,-5.80
2022-12-13T22:59:42.629Z,-5.84
2022-12-13T23:02:11.598Z,-5.86
2022-12-13T23:04:39.889Z,-5.86
2022-12-13T23:07:08.000Z,-5.85
2022-12-13T23:09:36.421Z,-5.84
2022-12-13T23:12:37.253Z,-5.81
2022-12-13T23:15:06.242Z,-5.78
2022-12-13T23:17:34.279Z,-5.78
2022-12-13T23:20:04.642Z,-5.77
2022-12-13T23:22:32.749Z,-5.76
2022-12-13T23:25:00.894Z,-5.74
2022-12-13T23:27:29.071Z,-5.70
2022-12-13T23:29:57.286Z,-5.65
2022-12-13T23:32:25.503Z,-5.61
2022-12-13T23:34:53.604Z,-5.59
2022-12-13T23:37:22.315Z,-5.63
2022-12-13T23:39:50.374Z,-5.63
2022-12-13T23:42:18.647Z,-5.63
2022-12-13T23:44:46.796Z,-5.63
2022-12-13T23:47:14.792Z,-5.64
2022-12-13T23:49:42.878Z,-5.63
2022-12-13T23:52:11.115Z,-5.62
2022-12-13T23:54:39.247Z,-5.60
2022-12-13T23:57:07.765Z,-5.60
2022-12-13T23:59:36.207Z,-5.62
